Time;durP1;ratioP1;P1;durP2;ratioP2;P2;SDS_P1;SDS_P2;PMS_P1;PMS_P2;Temp;Humidity;BMP_temperature;BMP_pressure;BME280_temperature;BME280_humidity;BME280_pressure;Samples;Min_cycle;Max_cycle;Signal;HPM_P1;HPM_P2
2021/06/15 00:00:41;;;;;;;7.77;4.00;;;;;;;16.58;78.86;100524.97;2086193;28;20032;-58
2021/06/15 00:01:41;;;;;;;5.80;4.07;;;;;;;16.55;79.43;100525.09;2092294;28;20032;-58
2021/06/15 00:02:41;;;;;;;7.53;4.37;;;;;;;16.53;79.68;100527.81;2084474;28;20041;-57
2021/06/15 00:03:42;;;;;;;9.53;4.07;;;;;;;16.54;80.22;100534.78;2083416;28;20508;-58
2021/06/15 00:04:42;;;;;;;8.87;4.17;;;;;;;16.51;80.22;100528.84;2087811;28;20029;-57
2021/06/15 00:05:43;;;;;;;8.07;4.50;;;;;;;16.52;79.94;100530.50;2085849;28;20733;-57
2021/06/15 00:06:43;;;;;;;5.97;4.28;;;;;;;16.46;80.39;100537.78;2083562;28;20115;-57
2021/06/15 00:07:44;;;;;;;9.10;4.67;;;;;;;16.45;80.85;100530.81;2086070;28;20561;-57
2021/06/15 00:08:44;;;;;;;8.65;4.65;;;;;;;16.42;80.93;100535.41;2083448;28;20053;-57
2021/06/15 00:09:45;;;;;;;9.30;4.53;;;;;;;16.37;81.15;100533.00;2078903;28;20438;-57
2021/06/15 00:10:46;;;;;;;8.53;4.87;;;;;;;16.33;81.61;100532.28;2078930;28;20399;-58
2021/06/15 00:11:46;;;;;;;7.80;4.35;;;;;;;16.30;81.45;100532.44;2084808;28;20104;-57
2021/06/15 00:12:46;;;;;;;7.93;4.67;;;;;;;16.28;81.29;100533.44;2084093;28;20020;-57
2021/06/15 00:13:47;;;;;;;7.33;4.80;;;;;;;16.26;81.61;100535.28;2082742;28;20411;-58
2021/06/15 00:14:47;;;;;;;10.17;4.50;;;;;;;16.22;81.99;100531.97;2081209;28;20149;-58
2021/06/15 00:15:48;;;;;;;6.37;4.40;;;;;;;16.17;81.61;100532.19;2079110;28;20029;-58
2021/06/15 00:16:49;;;;;;;;;;;;;;;16.17;81.68;100532.19;2078896;28;20437;-58
2021/06/15 00:17:50;;;;;;;10.20;4.93;;;;;;;16.15;81.69;100538.44;2079838;28;19960;-58
2021/06/15 00:18:51;;;;;;;8.38;4.63;;;;;;;16.12;81.82;100530.69;2079746;28;20721;-58
2021/06/15 00:19:51;;;;;;;9.93;5.13;;;;;;;16.12;81.76;100536.78;2076970;28;20033;-58
2021/06/15 00:20:52;;;;;;;8.03;5.00;;;;;;;16.07;82.24;100528.28;2076502;28;20397;-58
2021/06/15 00:21:52;;;;;;;8.63;4.35;;;;;;;16.08;82.03;100532.63;2079222;28;20039;-58
2021/06/15 00:22:53;;;;;;;7.40;4.97;;;;;;;16.03;82.51;100529.34;2076573;28;20031;-58
2021/06/15 00:23:53;;;;;;;10.30;4.50;;;;;;;16.03;82.38;100531.97;2077210;28;20099;-58
2021/06/15 00:24:54;;;;;;;11.30;4.50;;;;;;;15.97;82.04;100540.16;2077436;28;20057;-58
2021/06/15 00:25:54;;;;;;;11.97;4.90;;;;;;;15.99;82.07;100533.06;2079760;28;20116;-58
2021/06/15 00:26:54;;;;;;;10.57;4.67;;;;;;;16.00;82.18;100535.63;2077606;28;20509;-58
2021/06/15 00:27:54;;;;;;;8.67;4.87;;;;;;;16.05;81.12;100534.56;2078938;28;20083;-58
2021/06/15 00:28:55;;;;;;;7.63;5.03;;;;;;;16.06;80.99;100533.63;2081472;28;20449;-58
2021/06/15 00:29:55;;;;;;;9.00;4.90;;;;;;;16.09;81.00;100523.81;2075971;28;20107;-57
2021/06/15 00:30:56;;;;;;;9.00;4.77;;;;;;;16.10;80.65;100528.16;2080507;28;20032;-58
2021/06/15 00:31:56;;;;;;;8.13;4.63;;;;;;;16.12;80.58;100526.28;2077501;28;20057;-58
2021/06/15 00:32:56;;;;;;;11.03;5.03;;;;;;;16.13;79.90;100520.09;2078076;28;20039;-58
2021/06/15 00:33:57;;;;;;;10.13;4.75;;;;;;;16.11;79.70;100527.22;2078726;28;20025;-57
2021/06/15 00:34:57;;;;;;;8.43;4.63;;;;;;;16.13;79.36;100520.09;2080630;28;20047;-58
2021/06/15 00:35:57;;;;;;;10.57;4.70;;;;;;;16.13;79.63;100529.78;2079682;28;20140;-58
2021/06/15 00:36:58;;;;;;;5.67;4.87;;;;;;;16.13;79.97;100535.88;2080802;28;20171;-57
2021/06/15 00:37:58;;;;;;;5.67;4.47;;;;;;;16.14;79.76;100527.06;2079452;28;20382;-58
2021/06/15 00:38:58;;;;;;;7.50;4.50;;;;;;;16.13;79.64;100530.63;2081370;28;20040;-58
2021/06/15 00:39:58;;;;;;;8.17;4.43;;;;;;;16.06;79.80;100528.38;2080145;28;20029;-57
2021/06/15 00:40:59;;;;;;;5.57;4.40;;;;;;;16.02;79.50;100525.88;2080756;28;20068;-58
2021/06/15 00:41:59;;;;;;;7.20;4.50;;;;;;;16.00;80.08;100529.53;2080659;28;20021;-58
2021/06/15 00:42:59;;;;;;;7.70;4.33;;;;;;;15.97;79.74;100534.91;2079814;28;20044;-58
2021/06/15 00:44:00;;;;;;;9.93;4.27;;;;;;;15.92;79.97;100529.03;2081858;28;20600;-59
2021/06/15 00:45:00;;;;;;;10.07;4.43;;;;;;;15.90;79.91;100534.34;2081712;28;20033;-59
2021/06/15 00:46:01;;;;;;;7.07;4.72;;;;;;;15.85;80.01;100537.19;2084225;28;20041;-59
2021/06/15 00:47:03;;;;;;;7.78;4.82;;;;;;;15.86;80.44;100532.81;2082051;28;20033;-59
2021/06/15 00:48:03;;;;;;;;;;;;;;;15.87;80.23;100542.41;2080604;28;20037;-59
2021/06/15 00:49:04;;;;;;;9.32;4.70;;;;;;;15.91;80.19;100529.97;2082137;28;19975;-59
2021/06/15 00:50:06;;;;;;;9.38;4.85;;;;;;;15.88;80.31;100525.69;2084675;28;20067;-59
2021/06/15 00:51:06;;;;;;;10.68;4.85;;;;;;;15.84;80.63;100535.47;2082798;28;20021;-59
2021/06/15 00:52:07;;;;;;;7.57;4.65;;;;;;;15.83;81.10;100531.13;2087119;28;20079;-59
2021/06/15 00:53:08;;;;;;;9.25;4.65;;;;;;;15.82;80.59;100537.28;2087332;28;20025;-59
2021/06/15 00:54:09;;;;;;;10.70;4.80;;;;;;;15.78;81.03;100540.13;2086930;28;20028;-59
2021/06/15 00:55:10;;;;;;;8.90;4.75;;;;;;;15.67;81.27;100535.41;2083053;28;20025;-59
2021/06/15 00:56:10;;;;;;;9.88;5.00;;;;;;;15.66;81.38;100533.69;2082278;28;20029;-59
2021/06/15 00:57:19;;;;;;;6.40;4.87;;;;;;;15.65;81.42;100527.59;2085995;28;20029;-59
2021/06/15 00:58:20;;;;;;;7.65;4.90;;;;;;;15.62;81.39;100524.25;2085059;28;20024;-59
2021/06/15 00:59:20;;;;;;;10.15;5.18;;;;;;;15.60;80.78;100528.72;2085140;28;20032;-59
2021/06/15 01:00:21;;;;;;;8.77;4.57;;;;;;;15.57;81.36;100521.84;2085789;28;20079;-59
2021/06/15 01:01:23;;;;;;;7.10;4.80;;;;;;;15.56;81.31;100520.13;2086859;28;20024;-66
2021/06/15 01:02:26;;;;;;;6.45;4.50;;;;;;;15.54;81.82;100517.56;2087493;28;20044;-59
2021/06/15 01:03:28;;;;;;;6.95;4.88;;;;;;;15.55;82.27;100524.53;2087120;28;20025;-57
2021/06/15 01:04:28;;;;;;;8.00;4.97;;;;;;;15.52;81.85;100516.81;2078338;28;20021;-58
2021/06/15 01:05:28;;;;;;;8.53;6.03;;;;;;;15.54;81.80;100525.44;2078356;28;20534;-58
2021/06/15 01:06:43;;;;;;;9.57;7.00;;;;;;;15.55;82.13;100521.91;2088253;28;20021;-58
2021/06/15 01:08:04;;;;;;;12.40;6.88;;;;;;;15.56;82.11;100515.72;2087619;28;20116;-59
2021/06/15 01:09:14;;;;;;;15.30;6.28;;;;;;;15.62;81.95;100511.13;2086828;28;20098;-59
2021/06/15 01:10:38;;;;;;;7.82;5.53;;;;;;;15.63;81.43;100508.41;2085965;28;20032;-58
2021/06/15 01:12:11;;;;;;;10.10;5.03;;;;;;;15.66;81.38;100515.28;2087530;28;20060;-58
2021/06/15 01:13:40;;;;;;;9.25;5.70;;;;;;;15.65;80.92;100513.59;2078722;28;20512;-58
2021/06/15 01:14:59;;;;;;;10.02;5.10;;;;;;;15.62;80.26;100514.59;2088258;28;20021;-58
2021/06/15 01:16:09;;;;;;;7.13;4.53;;;;;;;15.67;80.71;100517.00;2087877;28;20032;-58
2021/06/15 01:17:18;;;;;;;7.78;4.70;;;;;;;15.69;81.05;100517.78;2088115;28;20025;-58
2021/06/15 01:18:21;;;;;;;8.88;4.47;;;;;;;15.69;80.26;100520.41;2087891;28;20025;-58
2021/06/15 01:19:40;;;;;;;6.75;4.68;;;;;;;15.71;80.69;100519.41;2088522;28;20016;-58
2021/06/15 01:20:46;;;;;;;12.35;4.60;;;;;;;15.72;80.10;100518.50;2087727;28;20035;-58
2021/06/15 01:22:07;;;;;;;7.93;4.50;;;;;;;15.71;80.83;100514.16;2087602;28;20035;-58
2021/06/15 01:23:29;;;;;;;6.75;4.53;;;;;;;15.67;80.67;100510.00;2085302;28;20036;-59
2021/06/15 01:24:42;;;;;;;10.98;4.97;;;;;;;15.66;80.47;100515.28;2088191;28;20016;-58
2021/06/15 01:25:58;;;;;;;7.90;4.68;;;;;;;15.62;81.11;100513.75;2085680;28;20598;-59
2021/06/15 01:27:26;;;;;;;6.90;4.40;;;;;;;15.62;81.05;100511.13;2087780;28;20624;-58
2021/06/15 01:28:41;;;;;;;6.53;4.18;;;;;;;15.64;80.26;100511.88;2085961;28;20086;-58
2021/06/15 01:29:45;;;;;;;7.75;4.20;;;;;;;15.63;80.53;100502.28;2085731;28;20041;-58
2021/06/15 01:30:57;;;;;;;5.47;4.43;;;;;;;15.56;81.20;100510.47;2088009;28;20017;-58
2021/06/15 01:32:06;;;;;;;6.22;4.53;;;;;;;15.57;80.81;100511.34;2088057;28;20482;-58
2021/06/15 01:33:09;;;;;;;6.88;4.70;;;;;;;15.56;80.91;100510.47;2086108;28;20032;-59
2021/06/15 01:34:15;;;;;;;12.65;5.05;;;;;;;15.55;80.59;100518.44;2088219;28;20029;-59
2021/06/15 01:35:15;;;;;;;14.52;4.65;;;;;;;15.52;81.11;100510.69;2087505;28;20568;-58
2021/06/15 01:36:18;;;;;;;6.63;4.60;;;;;;;15.48;81.06;100512.59;2087342;28;20033;-58
2021/06/15 01:37:23;;;;;;;8.43;4.53;;;;;;;15.45;81.60;100509.25;2088022;28;20032;-58
2021/06/15 01:38:31;;;;;;;6.75;4.28;;;;;;;15.44;81.37;100518.06;2085647;28;20477;-58
2021/06/15 01:39:55;;;;;;;9.55;4.65;;;;;;;15.40;81.74;100517.34;2088310;28;20112;-58
2021/06/15 01:41:07;;;;;;;8.90;5.07;;;;;;;15.41;81.52;100512.03;2085732;28;20512;-58
2021/06/15 01:42:19;;;;;;;8.40;5.13;;;;;;;15.43;81.74;100509.31;2085367;28;20032;-59
2021/06/15 01:43:31;;;;;;;;;;;;;;;15.43;81.78;100509.31;2087681;28;20395;-58
2021/06/15 01:44:34;;;;;;;9.25;5.13;;;;;;;15.43;81.59;100511.94;2088341;28;20011;-59
2021/06/15 01:45:40;;;;;;;9.55;4.85;;;;;;;15.41;81.67;100513.81;2087384;28;20021;-59
2021/06/15 01:47:01;;;;;;;7.40;4.75;;;;;;;15.34;81.91;100507.97;2088138;28;20021;-58
2021/06/15 01:48:07;;;;;;;6.13;5.00;;;;;;;15.32;82.13;100512.44;2088094;28;20025;-58
2021/06/15 01:49:14;;;;;;;8.65;4.90;;;;;;;15.25;82.67;100508.41;2088470;28;20146;-58
2021/06/15 01:50:20;;;;;;;7.65;4.80;;;;;;;15.20;82.79;100510.34;2087343;28;20029;-58
2021/06/15 01:51:22;;;;;;;9.38;5.43;;;;;;;15.10;83.45;100508.13;2087559;28;20645;-58
2021/06/15 01:52:30;;;;;;;7.32;5.10;;;;;;;15.04;83.04;100503.19;2087357;28;20096;-59
2021/06/15 01:53:33;;;;;;;8.30;4.32;;;;;;;15.05;82.74;100509.25;2086224;28;20024;-58
2021/06/15 01:54:36;;;;;;;7.43;4.68;;;;;;;15.02;82.86;100505.00;2087904;28;20052;-58
2021/06/15 01:55:40;;;;;;;8.80;5.10;;;;;;;15.01;83.27;100502.47;2087562;28;20469;-58
2021/06/15 01:56:42;;;;;;;9.10;4.95;;;;;;;15.00;83.28;100501.59;2087904;28;20025;-58
2021/06/15 01:57:43;;;;;;;8.70;4.78;;;;;;;15.03;83.79;100506.72;2087463;28;20096;-58
2021/06/15 01:58:45;;;;;;;8.95;5.18;;;;;;;15.04;83.98;100499.69;2087520;28;20024;-58
2021/06/15 01:59:48;;;;;;;15.52;5.10;;;;;;;15.06;83.76;100508.34;2087440;28;20030;-58
2021/06/15 02:00:50;;;;;;;7.57;4.88;;;;;;;15.05;83.69;100509.25;2087795;28;20049;-58
2021/06/15 02:02:00;;;;;;;10.98;5.13;;;;;;;15.01;84.37;100508.56;2087257;28;20108;-58
2021/06/15 02:03:03;;;;;;;9.65;4.90;;;;;;;15.02;84.53;100509.41;2087388;28;20534;-58
2021/06/15 02:04:04;;;;;;;9.27;5.28;;;;;;;14.96;84.39;100507.03;2087400;28;20078;-58
2021/06/15 02:05:08;;;;;;;7.78;5.07;;;;;;;14.92;84.44;100512.44;2087510;28;20033;-58
2021/06/15 02:06:09;;;;;;;9.80;5.47;;;;;;;14.87;84.83;100506.53;2087122;28;20489;-58
2021/06/15 02:07:14;;;;;;;10.13;4.57;;;;;;;14.86;84.23;100509.22;2087908;28;20045;-58
2021/06/15 02:08:22;;;;;;;8.00;4.57;;;;;;;14.83;84.35;100502.34;2087678;28;20032;-58
2021/06/15 02:09:24;;;;;;;8.80;5.40;;;;;;;14.84;84.14;100511.06;2088015;28;20021;-58
2021/06/15 02:10:25;;;;;;;8.90;5.13;;;;;;;14.81;84.88;100511.19;2087932;28;20032;-58
2021/06/15 02:11:28;;;;;;;6.80;5.20;;;;;;;14.78;84.58;100514.81;2087954;28;20045;-58
2021/06/15 02:12:31;;;;;;;7.93;5.00;;;;;;;14.72;84.95;100515.91;2087812;28;20025;-58
2021/06/15 02:13:33;;;;;;;7.70;5.22;;;;;;;14.68;85.00;100508.22;2087425;28;20497;-58
2021/06/15 02:14:35;;;;;;;8.35;5.45;;;;;;;14.64;84.87;100510.94;2087795;28;20082;-58
2021/06/15 02:15:36;;;;;;;8.02;5.18;;;;;;;14.66;84.87;100512.66;2087136;28;20112;-58
2021/06/15 02:16:36;;;;;;;8.77;5.18;;;;;;;14.65;84.62;100501.31;2087213;28;20044;-58
2021/06/15 02:17:44;;;;;;;7.40;4.77;;;;;;;14.64;84.67;100510.09;2087978;28;20160;-58
2021/06/15 02:18:50;;;;;;;7.72;4.82;;;;;;;14.62;84.32;100511.94;2087912;28;20033;-58
2021/06/15 02:19:51;;;;;;;11.10;5.13;;;;;;;14.59;84.64;100507.69;2087918;28;20033;-58
2021/06/15 02:20:54;;;;;;;6.53;5.10;;;;;;;14.60;84.63;100505.91;2087933;28;20025;-58
2021/06/15 02:22:17;;;;;;;8.82;5.18;;;;;;;14.58;85.04;100499.88;2087511;28;20120;-58
2021/06/15 02:23:21;;;;;;;7.07;4.95;;;;;;;14.58;85.22;100505.97;2087172;28;20493;-58
2021/06/15 02:24:27;;;;;;;6.07;5.40;;;;;;;14.52;85.89;100505.38;2087819;28;20649;-58
2021/06/15 02:25:36;;;;;;;9.95;5.50;;;;;;;14.53;85.81;100502.69;2088023;28;20063;-58
2021/06/15 02:26:37;;;;;;;7.32;5.28;;;;;;;14.53;85.17;100505.31;2087778;28;20466;-58
2021/06/15 02:27:39;;;;;;;8.70;5.47;;;;;;;14.52;85.36;100508.88;2088019;28;20037;-58
2021/06/15 02:28:40;;;;;;;8.25;5.78;;;;;;;14.53;85.88;100507.06;2087733;28;20060;-58
2021/06/15 02:29:40;;;;;;;10.15;5.40;;;;;;;14.51;85.53;100507.16;2087775;28;20021;-58
2021/06/15 02:30:41;;;;;;;7.90;5.33;;;;;;;14.53;85.35;100507.06;2087552;28;20036;-58
2021/06/15 02:31:51;;;;;;;5.80;4.93;;;;;;;14.49;85.66;100501.13;2088066;28;20275;-58
2021/06/15 02:32:55;;;;;;;8.30;5.13;;;;;;;14.52;86.07;100506.25;2088894;28;20074;-58
2021/06/15 02:34:02;;;;;;;8.73;5.30;;;;;;;14.51;85.54;100501.91;2089571;28;20056;-58
2021/06/15 02:35:07;;;;;;;10.05;4.88;;;;;;;14.54;85.69;100498.28;2089391;28;20063;-59
2021/06/15 02:36:14;;;;;;;8.77;5.18;;;;;;;14.54;85.56;100500.91;2089258;28;20632;-58
2021/06/15 02:37:20;;;;;;;6.38;4.82;;;;;;;14.55;84.85;100500.84;2089121;28;20032;-58
2021/06/15 02:38:29;;;;;;;5.97;4.72;;;;;;;14.53;85.41;100492.22;2089380;28;20450;-60
2021/06/15 02:39:34;;;;;;;7.25;5.38;;;;;;;14.54;85.15;100493.06;2089212;28;20063;-61
2021/06/15 02:40:36;;;;;;;7.70;5.20;;;;;;;14.55;85.13;100500.84;2089489;28;20031;-61
2021/06/15 02:41:38;;;;;;;8.02;5.25;;;;;;;14.53;85.01;100502.69;2088779;28;20504;-60
2021/06/15 02:42:42;;;;;;;6.38;4.95;;;;;;;14.55;84.65;100500.84;2088464;28;20071;-61
2021/06/15 02:43:44;;;;;;;7.15;4.97;;;;;;;14.55;84.64;100500.84;2088490;28;20028;-60
2021/06/15 02:44:46;;;;;;;11.63;5.45;;;;;;;14.62;84.85;100504.06;2089018;28;20029;-60
2021/06/15 02:45:47;;;;;;;6.93;5.10;;;;;;;14.54;85.61;100496.53;2089048;28;20090;-60
2021/06/15 02:46:50;;;;;;;10.43;4.80;;;;;;;14.57;84.54;100496.41;2089456;28;20028;-61
2021/06/15 02:47:53;;;;;;;8.00;4.85;;;;;;;14.57;84.96;100499.00;2089183;28;20025;-61
2021/06/15 02:48:57;;;;;;;8.32;4.90;;;;;;;14.61;85.15;100497.13;2089554;28;20021;-60
2021/06/15 02:49:59;;;;;;;6.25;5.00;;;;;;;14.57;85.36;100488.53;2089250;28;20096;-60
2021/06/15 02:51:01;;;;;;;7.07;5.00;;;;;;;14.54;85.46;100493.91;2089587;28;20062;-60
2021/06/15 02:52:02;;;;;;;5.95;4.57;;;;;;;14.57;85.04;100495.56;2088822;28;20029;-60
2021/06/15 02:53:14;;;;;;;8.63;5.17;;;;;;;14.55;85.51;100484.28;2088863;28;20017;-60
2021/06/15 02:54:25;;;;;;;7.32;5.00;;;;;;;14.52;85.85;100493.13;2089425;28;20517;-61
2021/06/15 02:55:33;;;;;;;7.22;4.88;;;;;;;14.51;85.80;100486.16;2089362;28;20027;-60
2021/06/15 02:56:38;;;;;;;9.63;5.00;;;;;;;14.46;85.66;100482.88;2089299;28;20420;-61
2021/06/15 02:57:38;;;;;;;7.38;4.85;;;;;;;14.45;85.65;100491.69;2089198;28;20033;-61
2021/06/15 02:58:38;;;;;;;11.83;4.93;;;;;;;14.41;85.82;100487.47;2089468;28;20474;-60
2021/06/15 02:59:39;;;;;;;8.87;4.80;;;;;;;14.41;86.56;100485.69;2089161;28;20115;-60
2021/06/15 03:00:39;;;;;;;10.50;5.20;;;;;;;14.37;86.46;100486.75;2089451;28;20024;-61
2021/06/15 03:01:45;;;;;;;7.63;4.93;;;;;;;14.37;86.05;100486.75;2088614;28;20025;-61
2021/06/15 03:02:45;;;;;;;8.48;5.00;;;;;;;14.40;86.17;100488.38;2086922;28;20029;-61
2021/06/15 03:03:46;;;;;;;9.20;5.50;;;;;;;14.40;86.23;100488.38;2089217;28;20108;-60
2021/06/15 03:04:46;;;;;;;8.73;4.90;;;;;;;14.39;86.21;100494.53;2089240;28;20366;-61
2021/06/15 03:05:47;;;;;;;8.20;5.33;;;;;;;14.36;86.33;100489.41;2088167;28;20028;-60
2021/06/15 03:06:47;;;;;;;8.60;5.70;;;;;;;14.35;85.83;100495.59;2088445;28;20746;-60
2021/06/15 03:07:48;;;;;;;8.18;5.13;;;;;;;14.32;86.45;100499.19;2088788;28;20065;-60
2021/06/15 03:08:48;;;;;;;9.32;6.20;;;;;;;14.29;86.71;100504.56;2089185;28;20075;-61
2021/06/15 03:09:49;;;;;;;11.03;6.50;;;;;;;14.24;87.09;100502.13;2089115;28;20029;-61
2021/06/15 03:10:49;;;;;;;10.47;6.80;;;;;;;14.27;87.22;100503.78;2088508;28;20033;-60
2021/06/15 03:12:09;;;;;;;10.63;6.50;;;;;;;14.25;87.20;100508.22;2087784;28;20033;-60
2021/06/15 03:13:19;;;;;;;12.18;6.70;;;;;;;14.24;86.95;100502.13;2080688;28;20033;-61
2021/06/15 03:14:25;;;;;;;11.75;6.18;;;;;;;14.25;86.68;100503.84;2079921;28;20092;-60
2021/06/15 03:15:35;;;;;;;17.77;7.40;;;;;;;14.27;86.65;100509.84;2080030;28;20029;-60
2021/06/15 03:16:36;;;;;;;12.15;6.40;;;;;;;14.25;86.98;100510.84;2080562;28;20068;-61
2021/06/15 03:17:42;;;;;;;11.20;7.03;;;;;;;14.25;87.27;100508.22;2080567;28;20029;-61
2021/06/15 03:18:56;;;;;;;10.73;6.68;;;;;;;14.21;87.44;100514.50;2080646;28;20641;-60
2021/06/15 03:20:01;;;;;;;10.40;6.45;;;;;;;14.19;87.51;100511.09;2080802;28;20033;-61
2021/06/15 03:21:11;;;;;;;12.20;6.30;;;;;;;14.19;87.59;100506.69;2083915;28;20017;-60
2021/06/15 03:22:19;;;;;;;12.45;7.05;;;;;;;14.20;87.37;100512.81;2080753;28;20033;-61
2021/06/15 03:23:47;;;;;;;10.98;6.28;;;;;;;14.18;87.31;100510.22;2087596;28;20094;-61
2021/06/15 03:24:58;;;;;;;10.13;6.50;;;;;;;14.18;87.00;100515.47;2088746;28;20480;-61
2021/06/15 03:26:03;;;;;;;10.90;6.47;;;;;;;14.19;87.23;100513.72;2088702;28;20118;-61
2021/06/15 03:27:09;;;;;;;9.02;6.63;;;;;;;14.15;87.46;100505.13;2088649;28;20033;-60
2021/06/15 03:28:20;;;;;;;12.88;6.28;;;;;;;14.15;87.70;100505.13;2088785;28;20029;-60
2021/06/15 03:29:24;;;;;;;11.60;6.13;;;;;;;14.17;87.88;100511.16;2088228;28;20036;-60
2021/06/15 03:30:25;;;;;;;11.57;6.43;;;;;;;14.14;87.80;100514.75;2088739;28;20078;-60
2021/06/15 03:31:28;;;;;;;9.15;5.93;;;;;;;14.15;87.96;100516.47;2088800;28;20067;-60
2021/06/15 03:32:28;;;;;;;10.70;6.05;;;;;;;14.16;87.38;100515.56;2089018;28;20533;-60
2021/06/15 03:33:30;;;;;;;9.37;6.20;;;;;;;14.13;87.29;100514.81;2088828;28;20017;-60
2021/06/15 03:34:32;;;;;;;9.60;5.97;;;;;;;14.17;87.09;100516.38;2088448;28;20477;-60
2021/06/15 03:35:32;;;;;;;;;;;;;;;14.19;87.08;100516.34;2088843;28;20025;-60
2021/06/15 03:36:35;;;;;;;7.40;5.47;;;;;;;14.16;87.29;100514.69;2089300;28;20414;-60
2021/06/15 03:37:37;;;;;;;11.85;5.90;;;;;;;14.20;87.47;100512.81;2089131;28;20438;-60
2021/06/15 03:38:40;;;;;;;7.32;5.40;;;;;;;14.21;87.72;100517.97;2088719;28;20048;-60
2021/06/15 03:39:41;;;;;;;10.45;5.22;;;;;;;14.23;87.34;100512.66;2088711;28;20120;-60
2021/06/15 03:40:46;;;;;;;18.33;5.65;;;;;;;14.23;87.33;100520.53;2088956;28;20040;-60
2021/06/15 03:41:51;;;;;;;8.25;5.93;;;;;;;14.23;87.38;100516.16;2088128;28;20037;-61
2021/06/15 03:42:52;;;;;;;11.27;6.28;;;;;;;14.25;87.49;100518.72;2087538;28;20486;-61
2021/06/15 03:43:57;;;;;;;9.02;5.80;;;;;;;14.25;87.39;100513.47;2088063;28;20036;-60
2021/06/15 03:45:01;;;;;;;10.50;6.25;;;;;;;14.25;87.39;100513.47;2088766;28;20056;-60
2021/06/15 03:46:04;;;;;;;15.32;5.70;;;;;;;14.26;87.01;100523.03;2088229;28;20037;-60
2021/06/15 03:47:05;;;;;;;11.80;5.97;;;;;;;14.28;87.55;100521.22;2088656;28;20020;-61
2021/06/15 03:48:06;;;;;;;7.07;5.78;;;;;;;14.29;87.55;100520.31;2087858;28;20029;-60
2021/06/15 03:49:10;;;;;;;9.90;5.88;;;;;;;14.34;87.31;100523.56;2088289;28;20066;-60
2021/06/15 03:50:13;;;;;;;12.55;6.07;;;;;;;14.41;86.84;100521.56;2088529;28;20025;-61
2021/06/15 03:51:26;;;;;;;12.68;6.30;;;;;;;14.46;86.79;100522.22;2088585;28;20021;-60
2021/06/15 03:52:29;;;;;;;8.45;5.97;;;;;;;14.56;86.25;100522.69;2088098;28;20033;-60
2021/06/15 03:53:33;;;;;;;12.23;5.90;;;;;;;14.61;85.38;100515.47;2088082;28;20021;-60
2021/06/15 03:54:34;;;;;;;11.00;5.35;;;;;;;14.69;85.51;100516.06;2088506;28;20114;-61
2021/06/15 03:55:37;;;;;;;9.20;5.97;;;;;;;14.76;85.00;100520.13;2088549;28;20033;-60
2021/06/15 03:56:42;;;;;;;11.27;6.28;;;;;;;14.86;84.74;100517.94;2088545;28;20025;-60
2021/06/15 03:57:44;;;;;;;10.80;5.65;;;;;;;15.24;83.09;100515.41;2088774;28;20109;-60
2021/06/15 03:58:46;;;;;;;8.88;5.55;;;;;;;16.23;79.27;100519.66;2088625;28;20734;-60
2021/06/15 03:59:48;;;;;;;10.80;5.47;;;;;;;17.47;74.17;100514.22;2088826;28;20032;-60
2021/06/15 04:00:50;;;;;;;9.38;6.00;;;;;;;18.30;70.47;100511.41;2088699;28;20405;-60
2021/06/15 04:01:52;;;;;;;9.02;5.22;;;;;;;18.73;67.97;100508.03;2088417;28;20032;-60
2021/06/15 04:02:55;;;;;;;7.97;4.97;;;;;;;18.94;66.64;100508.59;2088219;28;20342;-61
2021/06/15 04:03:59;;;;;;;8.15;5.38;;;;;;;19.05;65.62;100515.00;2088680;28;20417;-61
2021/06/15 04:05:00;;;;;;;7.13;5.18;;;;;;;18.75;66.31;100515.88;2088522;28;20029;-60
2021/06/15 04:06:01;;;;;;;;;;;;;;;18.54;67.42;100515.34;2088706;28;20025;-61
2021/06/15 04:07:05;;;;;;;5.93;4.65;;;;;;;18.41;67.25;100515.22;2088353;28;19936;-61
2021/06/15 04:08:07;;;;;;;7.55;4.60;;;;;;;18.62;67.10;100521.00;2088457;28;20032;-61
2021/06/15 04:09:10;;;;;;;7.68;4.50;;;;;;;18.91;65.60;100514.00;2088466;28;20626;-61
2021/06/15 04:10:12;;;;;;;7.57;4.93;;;;;;;19.11;64.86;100518.09;2088655;28;20029;-61
2021/06/15 04:11:13;;;;;;;10.73;4.10;;;;;;;18.88;65.82;100521.28;2088355;28;20025;-60
2021/06/15 04:12:14;;;;;;;8.75;4.60;;;;;;;18.39;66.94;100527.63;2088037;28;20025;-60
2021/06/15 04:13:15;;;;;;;;;;;;;;;17.76;69.54;100524.94;2088521;28;20056;-60
2021/06/15 04:14:16;;;;;;;11.35;5.10;;;;;;;17.52;70.64;100528.00;2088100;28;19920;-60
2021/06/15 04:15:17;;;;;;;8.43;4.45;;;;;;;17.21;72.16;100519.13;2088217;28;20032;-61
2021/06/15 04:16:19;;;;;;;8.68;4.88;;;;;;;17.14;72.90;100532.69;2088341;28;20021;-60
2021/06/15 04:17:26;;;;;;;7.40;4.75;;;;;;;16.93;73.45;100535.47;2087593;28;20482;-61
2021/06/15 04:18:28;;;;;;;8.68;4.72;;;;;;;16.72;74.64;100540.06;2087989;28;20024;-61
2021/06/15 04:19:37;;;;;;;8.55;4.78;;;;;;;16.43;75.87;100535.31;2088204;28;20475;-60
2021/06/15 04:20:39;;;;;;;9.13;4.85;;;;;;;16.36;76.73;100541.81;2088302;28;20070;-61
2021/06/15 04:21:46;;;;;;;8.43;5.20;;;;;;;16.23;76.75;100535.44;2087847;28;20025;-61
2021/06/15 04:22:48;;;;;;;9.85;4.72;;;;;;;16.21;77.39;100537.31;2088345;28;20028;-61
2021/06/15 04:23:55;;;;;;;8.65;5.22;;;;;;;16.09;78.25;100533.47;2088073;28;20108;-60
2021/06/15 04:24:58;;;;;;;10.05;5.00;;;;;;;16.07;78.86;100541.44;2088351;28;20023;-60
2021/06/15 04:25:58;;;;;;;8.32;5.13;;;;;;;15.97;79.32;100532.28;2088256;28;20025;-60
2021/06/15 04:26:59;;;;;;;15.73;5.63;;;;;;;15.95;79.71;100536.75;2088113;28;20025;-60
2021/06/15 04:28:02;;;;;;;9.48;5.28;;;;;;;15.90;79.51;100534.34;2088551;28;20033;-60
2021/06/15 04:29:05;;;;;;;8.32;5.68;;;;;;;15.87;79.36;100535.34;2088338;28;20032;-61
2021/06/15 04:30:07;;;;;;;9.25;5.50;;;;;;;15.89;79.44;100535.28;2088446;28;20032;-60
2021/06/15 04:31:09;;;;;;;10.02;5.43;;;;;;;15.85;79.87;100531.94;2088409;28;20111;-61
2021/06/15 04:32:11;;;;;;;9.27;5.95;;;;;;;15.85;79.96;100531.09;2087508;28;20028;-61
2021/06/15 04:33:14;;;;;;;12.35;5.75;;;;;;;15.83;79.50;100539.00;2087582;28;20090;-60
2021/06/15 04:34:18;;;;;;;10.45;5.65;;;;;;;15.83;79.70;100533.75;2088411;28;20438;-60
2021/06/15 04:35:28;;;;;;;10.63;5.70;;;;;;;15.84;80.06;100530.22;2088308;28;20047;-60
2021/06/15 04:36:34;;;;;;;13.45;6.03;;;;;;;15.86;79.61;100527.56;2088290;28;20027;-60
2021/06/15 04:37:36;;;;;;;14.00;5.57;;;;;;;15.78;80.38;100533.13;2088489;28;20017;-60
2021/06/15 04:38:45;;;;;;;14.07;6.35;;;;;;;15.74;80.72;100538.59;2088231;28;20389;-60
2021/06/15 04:39:49;;;;;;;11.43;5.80;;;;;;;15.80;80.47;100530.41;2088382;28;20083;-60
2021/06/15 04:40:52;;;;;;;10.63;5.80;;;;;;;15.80;80.77;100533.91;2083933;28;20036;-60
2021/06/15 04:41:55;;;;;;;11.35;5.50;;;;;;;15.81;80.98;100533.00;2087093;28;20485;-60
2021/06/15 04:43:10;;;;;;;8.93;5.63;;;;;;;15.77;81.31;100534.03;2082978;28;20860;-60
2021/06/15 04:44:15;;;;;;;8.82;5.82;;;;;;;15.82;81.21;100537.28;2085382;28;20033;-60
2021/06/15 04:45:21;;;;;;;8.07;5.75;;;;;;;15.91;81.06;100536.06;2084118;28;20439;-60
2021/06/15 04:46:27;;;;;;;11.57;5.93;;;;;;;16.06;80.36;100534.47;2088016;28;20385;-60
2021/06/15 04:47:30;;;;;;;10.65;6.22;;;;;;;16.05;81.15;100538.03;2087862;28;20063;-60
2021/06/15 04:48:33;;;;;;;8.20;5.90;;;;;;;16.24;80.47;100537.13;2087548;28;20021;-60
2021/06/15 04:49:44;;;;;;;11.57;5.35;;;;;;;16.38;79.88;100539.97;2088503;28;20012;-60
2021/06/15 04:50:47;;;;;;;10.20;5.75;;;;;;;16.51;79.80;100534.94;2081928;28;20514;-60
2021/06/15 04:51:52;;;;;;;7.72;5.50;;;;;;;16.69;78.08;100535.81;2079802;28;21110;-60
2021/06/15 04:52:53;;;;;;;8.07;5.93;;;;;;;16.82;78.37;100536.03;2085670;28;20036;-60
2021/06/15 04:54:00;;;;;;;9.30;5.78;;;;;;;17.19;77.00;100543.84;2087312;28;20037;-60
2021/06/15 04:55:01;;;;;;;10.45;5.88;;;;;;;18.96;71.26;100540.19;2082184;28;20422;-60
2021/06/15 04:56:04;;;;;;;14.52;5.50;;;;;;;21.91;60.64;100537.63;2087470;28;20052;-60
2021/06/15 04:57:10;;;;;;;9.60;5.22;;;;;;;24.67;51.19;100538.38;2087615;28;20028;-61
2021/06/15 04:58:13;;;;;;;11.02;5.15;;;;;;;26.62;45.43;100541.78;2088071;28;20029;-60
2021/06/15 04:59:15;;;;;;;7.63;4.70;;;;;;;28.39;40.66;100549.00;2088231;28;20111;-61